sensor_id;sensor_type;location;lat;lon;timestamp;P1;durP1;ratioP1;P2;durP2;ratioP2
1082;SDS011;530;51.448;7.238;2022-10-22T00:01:42;3.87;;;2.50;;
1082;SDS011;530;51.448;7.238;2022-10-22T00:04:08;2.77;;;1.90;;
1082;SDS011;530;51.448;7.238;2022-10-22T00:06:33;3.60;;;2.10;;
1082;SDS011;530;51.448;7.238;2022-10-22T00:08:59;3.37;;;2.00;;
1082;SDS011;530;51.448;7.238;2022-10-22T00:11:24;3.17;;;2.87;;
1082;SDS011;530;51.448;7.238;2022-10-22T00:13:50;3.23;;;2.47;;
1082;SDS011;530;51.448;7.238;2022-10-22T00:16:16;5.63;;;2.37;;
1082;SDS011;530;51.448;7.238;2022-10-22T00:18:41;4.40;;;2.87;;
1082;SDS011;530;51.448;7.238;2022-10-22T00:21:07;3.97;;;2.30;;
1082;SDS011;530;51.448;7.238;2022-10-22T00:23:33;3.13;;;2.60;;
1082;SDS011;530;51.448;7.238;2022-10-22T00:25:58;5.03;;;2.73;;
1082;SDS011;530;51.448;7.238;2022-10-22T00:28:24;3.93;;;2.43;;
1082;SDS011;530;51.448;7.238;2022-10-22T00:30:56;3.40;;;2.53;;
1082;SDS011;530;51.448;7.238;2022-10-22T00:33:23;2.40;;;2.17;;
1082;SDS011;530;51.448;7.238;2022-10-22T00:35:50;4.50;;;2.90;;
1082;SDS011;530;51.448;7.238;2022-10-22T00:38:15;6.53;;;2.67;;
1082;SDS011;530;51.448;7.238;2022-10-22T00:40:41;4.67;;;2.90;;
1082;SDS011;530;51.448;7.238;2022-10-22T00:43:09;4.67;;;2.70;;
1082;SDS011;530;51.448;7.238;2022-10-22T00:45:40;7.70;;;3.47;;
1082;SDS011;530;51.448;7.238;2022-10-22T00:48:17;5.87;;;3.20;;
1082;SDS011;530;51.448;7.238;2022-10-22T00:50:51;5.33;;;3.90;;
1082;SDS011;530;51.448;7.238;2022-10-22T00:53:23;4.20;;;2.73;;
1082;SDS011;530;51.448;7.238;2022-10-22T00:55:53;6.03;;;2.90;;
1082;SDS011;530;51.448;7.238;2022-10-22T00:58:21;5.67;;;4.40;;
1082;SDS011;530;51.448;7.238;2022-10-22T01:00:50;5.20;;;2.80;;
1082;SDS011;530;51.448;7.238;2022-10-22T01:03:16;3.70;;;3.00;;
1082;SDS011;530;51.448;7.238;2022-10-22T01:06:00;6.80;;;3.30;;
1082;SDS011;530;51.448;7.238;2022-10-22T01:16:36;4.60;;;3.13;;
1082;SDS011;530;51.448;7.238;2022-10-22T01:19:24;4.00;;;3.00;;
1082;SDS011;530;51.448;7.238;2022-10-22T01:22:02;3.73;;;2.67;;
1082;SDS011;530;51.448;7.238;2022-10-22T01:24:49;7.70;;;4.67;;
1082;SDS011;530;51.448;7.238;2022-10-22T01:27:29;5.17;;;3.07;;
1082;SDS011;530;51.448;7.238;2022-10-22T01:30:04;5.03;;;3.30;;
1082;SDS011;530;51.448;7.238;2022-10-22T01:32:35;8.10;;;3.40;;
1082;SDS011;530;51.448;7.238;2022-10-22T01:35:06;4.30;;;3.10;;
1082;SDS011;530;51.448;7.238;2022-10-22T01:37:37;6.03;;;3.57;;
1082;SDS011;530;51.448;7.238;2022-10-22T01:40:11;7.10;;;3.87;;
1082;SDS011;530;51.448;7.238;2022-10-22T01:42:40;4.20;;;3.00;;
1082;SDS011;530;51.448;7.238;2022-10-22T01:45:09;5.10;;;3.53;;
1082;SDS011;530;51.448;7.238;2022-10-22T02:01:10;3.87;;;2.87;;
1082;SDS011;530;51.448;7.238;2022-10-22T02:04:01;5.80;;;2.90;;
1082;SDS011;530;51.448;7.238;2022-10-22T02:06:36;3.37;;;2.90;;
1082;SDS011;530;51.448;7.238;2022-10-22T02:09:04;4.03;;;2.80;;
1082;SDS011;530;51.448;7.238;2022-10-22T02:11:32;8.57;;;3.23;;
1082;SDS011;530;51.448;7.238;2022-10-22T02:13:59;4.53;;;2.97;;
1082;SDS011;530;51.448;7.238;2022-10-22T02:16:35;4.97;;;3.37;;
1082;SDS011;530;51.448;7.238;2022-10-22T02:22:03;3.20;;;2.90;;
1082;SDS011;530;51.448;7.238;2022-10-22T02:24:29;3.73;;;3.03;;
1082;SDS011;530;51.448;7.238;2022-10-22T02:29:42;4.80;;;3.40;;
1082;SDS011;530;51.448;7.238;2022-10-22T02:32:17;6.70;;;3.40;;
1082;SDS011;530;51.448;7.238;2022-10-22T02:34:47;3.33;;;3.03;;
1082;SDS011;530;51.448;7.238;2022-10-22T02:37:14;5.63;;;3.50;;
1082;SDS011;530;51.448;7.238;2022-10-22T02:39:42;5.20;;;3.67;;
1082;SDS011;530;51.448;7.238;2022-10-22T02:42:08;4.80;;;3.30;;
1082;SDS011;530;51.448;7.238;2022-10-22T02:44:36;5.23;;;3.40;;
1082;SDS011;530;51.448;7.238;2022-10-22T02:47:01;9.80;;;4.17;;
1082;SDS011;530;51.448;7.238;2022-10-22T02:49:28;8.57;;;3.70;;
1082;SDS011;530;51.448;7.238;2022-10-22T02:51:53;9.23;;;3.23;;
1082;SDS011;530;51.448;7.238;2022-10-22T02:54:19;3.63;;;3.00;;
1082;SDS011;530;51.448;7.238;2022-10-22T02:56:45;4.10;;;3.70;;
1082;SDS011;530;51.448;7.238;2022-10-22T02:59:10;4.13;;;3.20;;
1082;SDS011;530;51.448;7.238;2022-10-22T03:01:36;7.60;;;3.33;;
1082;SDS011;530;51.448;7.238;2022-10-22T03:04:02;4.27;;;3.20;;
1082;SDS011;530;51.448;7.238;2022-10-22T03:06:28;4.30;;;3.80;;
1082;SDS011;530;51.448;7.238;2022-10-22T03:08:53;6.83;;;3.40;;
1082;SDS011;530;51.448;7.238;2022-10-22T03:11:19;4.00;;;3.20;;
1082;SDS011;530;51.448;7.238;2022-10-22T03:13:45;7.63;;;3.57;;
1082;SDS011;530;51.448;7.238;2022-10-22T03:16:10;6.47;;;2.87;;
1082;SDS011;530;51.448;7.238;2022-10-22T03:18:36;4.37;;;2.93;;
1082;SDS011;530;51.448;7.238;2022-10-22T03:21:09;4.20;;;3.07;;
1082;SDS011;530;51.448;7.238;2022-10-22T03:23:37;3.33;;;3.03;;
1082;SDS011;530;51.448;7.238;2022-10-22T03:26:04;7.33;;;3.33;;
1082;SDS011;530;51.448;7.238;2022-10-22T03:28:31;4.53;;;3.60;;
1082;SDS011;530;51.448;7.238;2022-10-22T03:30:57;6.13;;;3.40;;
1082;SDS011;530;51.448;7.238;2022-10-22T03:33:23;6.20;;;3.77;;
1082;SDS011;530;51.448;7.238;2022-10-22T03:35:49;5.70;;;3.43;;
1082;SDS011;530;51.448;7.238;2022-10-22T03:38:14;10.63;;;3.23;;
1082;SDS011;530;51.448;7.238;2022-10-22T03:40:40;5.10;;;3.40;;
1082;SDS011;530;51.448;7.238;2022-10-22T03:43:07;3.23;;;2.93;;
1082;SDS011;530;51.448;7.238;2022-10-22T03:45:33;5.50;;;4.00;;
1082;SDS011;530;51.448;7.238;2022-10-22T03:47:59;9.73;;;4.07;;
1082;SDS011;530;51.448;7.238;2022-10-22T03:50:24;6.43;;;4.00;;
1082;SDS011;530;51.448;7.238;2022-10-22T03:52:50;10.33;;;3.97;;
1082;SDS011;530;51.448;7.238;2022-10-22T03:55:17;10.73;;;4.33;;
1082;SDS011;530;51.448;7.238;2022-10-22T03:57:43;4.70;;;3.87;;
1082;SDS011;530;51.448;7.238;2022-10-22T04:00:08;7.50;;;4.30;;
1082;SDS011;530;51.448;7.238;2022-10-22T04:02:34;5.00;;;3.83;;
1082;SDS011;530;51.448;7.238;2022-10-22T04:05:00;4.23;;;3.70;;
1082;SDS011;530;51.448;7.238;2022-10-22T04:07:26;4.80;;;4.40;;
1082;SDS011;530;51.448;7.238;2022-10-22T04:09:51;5.20;;;3.80;;
1082;SDS011;530;51.448;7.238;2022-10-22T04:12:17;5.97;;;4.97;;
1082;SDS011;530;51.448;7.238;2022-10-22T04:14:42;6.30;;;3.80;;
1082;SDS011;530;51.448;7.238;2022-10-22T04:17:08;8.00;;;4.40;;
1082;SDS011;530;51.448;7.238;2022-10-22T04:19:34;4.07;;;3.77;;
1082;SDS011;530;51.448;7.238;2022-10-22T04:21:59;4.73;;;3.80;;
1082;SDS011;530;51.448;7.238;2022-10-22T04:24:25;6.20;;;4.20;;
1082;SDS011;530;51.448;7.238;2022-10-22T04:26:54;9.10;;;4.80;;
1082;SDS011;530;51.448;7.238;2022-10-22T04:29:20;6.53;;;4.30;;
1082;SDS011;530;51.448;7.238;2022-10-22T04:31:45;7.40;;;5.30;;
1082;SDS011;530;51.448;7.238;2022-10-22T04:34:11;7.27;;;4.40;;
1082;SDS011;530;51.448;7.238;2022-10-22T04:36:37;6.80;;;4.10;;
1082;SDS011;530;51.448;7.238;2022-10-22T04:39:03;6.40;;;4.20;;
1082;SDS011;530;51.448;7.238;2022-10-22T04:41:30;7.10;;;4.77;;
1082;SDS011;530;51.448;7.238;2022-10-22T04:43:58;7.37;;;5.33;;
1082;SDS011;530;51.448;7.238;2022-10-22T04:46:25;7.03;;;4.40;;
1082;SDS011;530;51.448;7.238;2022-10-22T04:48:52;5.73;;;4.50;;
1082;SDS011;530;51.448;7.238;2022-10-22T04:51:18;7.67;;;5.10;;
1082;SDS011;530;51.448;7.238;2022-10-22T04:53:45;4.53;;;3.83;;
1082;SDS011;530;51.448;7.238;2022-10-22T04:56:16;6.87;;;4.90;;
1082;SDS011;530;51.448;7.238;2022-10-22T04:58:50;6.50;;;4.97;;
1082;SDS011;530;51.448;7.238;2022-10-22T05:01:21;5.80;;;4.20;;
1082;SDS011;530;51.448;7.238;2022-10-22T05:03:50;9.73;;;4.53;;
1082;SDS011;530;51.448;7.238;2022-10-22T05:06:16;6.93;;;4.17;;
1082;SDS011;530;51.448;7.238;2022-10-22T05:08:44;5.50;;;3.93;;
1082;SDS011;530;51.448;7.238;2022-10-22T05:11:18;8.83;;;4.87;;
1082;SDS011;530;51.448;7.238;2022-10-22T05:13:45;6.00;;;3.97;;
1082;SDS011;530;51.448;7.238;2022-10-22T05:16:12;4.03;;;3.73;;
1082;SDS011;530;51.448;7.238;2022-10-22T05:18:38;5.00;;;4.33;;
1082;SDS011;530;51.448;7.238;2022-10-22T05:21:10;8.83;;;4.50;;
1082;SDS011;530;51.448;7.238;2022-10-22T05:23:37;9.23;;;4.33;;
1082;SDS011;530;51.448;7.238;2022-10-22T05:26:04;7.50;;;4.17;;
1082;SDS011;530;51.448;7.238;2022-10-22T05:28:31;5.40;;;4.47;;
1082;SDS011;530;51.448;7.238;2022-10-22T05:30:57;5.70;;;4.40;;
1082;SDS011;530;51.448;7.238;2022-10-22T05:33:24;5.73;;;4.40;;
1082;SDS011;530;51.448;7.238;2022-10-22T05:35:50;6.40;;;4.57;;
1082;SDS011;530;51.448;7.238;2022-10-22T05:38:16;7.43;;;4.80;;
1082;SDS011;530;51.448;7.238;2022-10-22T05:40:43;8.03;;;4.40;;
1082;SDS011;530;51.448;7.238;2022-10-22T05:43:09;6.10;;;5.50;;
1082;SDS011;530;51.448;7.238;2022-10-22T05:45:36;5.23;;;4.73;;
1082;SDS011;530;51.448;7.238;2022-10-22T05:48:05;5.17;;;4.40;;
1082;SDS011;530;51.448;7.238;2022-10-22T05:50:34;8.50;;;4.37;;
1082;SDS011;530;51.448;7.238;2022-10-22T05:53:01;6.67;;;4.17;;
1082;SDS011;530;51.448;7.238;2022-10-22T05:55:28;5.33;;;4.63;;
1082;SDS011;530;51.448;7.238;2022-10-22T05:57:54;5.27;;;4.10;;
1082;SDS011;530;51.448;7.238;2022-10-22T06:00:19;6.00;;;4.10;;
1082;SDS011;530;51.448;7.238;2022-10-22T06:02:49;6.57;;;4.40;;
1082;SDS011;530;51.448;7.238;2022-10-22T06:05:15;5.00;;;4.00;;
1082;SDS011;530;51.448;7.238;2022-10-22T06:07:40;5.17;;;4.60;;
1082;SDS011;530;51.448;7.238;2022-10-22T06:10:08;6.27;;;4.30;;
1082;SDS011;530;51.448;7.238;2022-10-22T06:12:38;5.27;;;4.20;;
1082;SDS011;530;51.448;7.238;2022-10-22T06:15:04;6.27;;;4.20;;
1082;SDS011;530;51.448;7.238;2022-10-22T06:17:30;6.90;;;4.40;;
1082;SDS011;530;51.448;7.238;2022-10-22T06:19:56;7.70;;;4.20;;
1082;SDS011;530;51.448;7.238;2022-10-22T06:22:21;5.63;;;4.40;;
1082;SDS011;530;51.448;7.238;2022-10-22T06:24:47;4.57;;;4.10;;
1082;SDS011;530;51.448;7.238;2022-10-22T06:27:13;8.10;;;5.60;;
1082;SDS011;530;51.448;7.238;2022-10-22T06:29:38;8.83;;;4.90;;
1082;SDS011;530;51.448;7.238;2022-10-22T06:32:04;6.30;;;4.20;;
1082;SDS011;530;51.448;7.238;2022-10-22T06:34:30;6.23;;;5.20;;
1082;SDS011;530;51.448;7.238;2022-10-22T06:36:55;5.40;;;4.90;;
1082;SDS011;530;51.448;7.238;2022-10-22T06:39:21;7.90;;;5.50;;
1082;SDS011;530;51.448;7.238;2022-10-22T06:41:46;6.27;;;4.90;;
1082;SDS011;530;51.448;7.238;2022-10-22T06:44:13;7.73;;;4.73;;
1082;SDS011;530;51.448;7.238;2022-10-22T06:46:40;9.30;;;6.13;;
1082;SDS011;530;51.448;7.238;2022-10-22T06:49:05;11.77;;;6.50;;
1082;SDS011;530;51.448;7.238;2022-10-22T06:51:31;6.90;;;4.77;;
1082;SDS011;530;51.448;7.238;2022-10-22T06:53:57;8.33;;;5.67;;
1082;SDS011;530;51.448;7.238;2022-10-22T06:56:23;7.93;;;4.70;;
1082;SDS011;530;51.448;7.238;2022-10-22T06:58:51;4.63;;;4.23;;
1082;SDS011;530;51.448;7.238;2022-10-22T07:01:23;6.00;;;5.33;;
1082;SDS011;530;51.448;7.238;2022-10-22T07:03:51;9.00;;;5.37;;
1082;SDS011;530;51.448;7.238;2022-10-22T07:06:17;8.20;;;4.73;;
1082;SDS011;530;51.448;7.238;2022-10-22T07:08:44;4.53;;;3.93;;
1082;SDS011;530;51.448;7.238;2022-10-22T07:11:11;8.80;;;4.40;;
1082;SDS011;530;51.448;7.238;2022-10-22T07:13:45;5.27;;;3.80;;
1082;SDS011;530;51.448;7.238;2022-10-22T07:16:12;5.07;;;4.10;;
1082;SDS011;530;51.448;7.238;2022-10-22T07:18:38;8.03;;;4.07;;
1082;SDS011;530;51.448;7.238;2022-10-22T07:21:05;7.33;;;4.00;;
1082;SDS011;530;51.448;7.238;2022-10-22T07:23:31;6.70;;;3.90;;
1082;SDS011;530;51.448;7.238;2022-10-22T07:25:56;10.47;;;4.00;;
1082;SDS011;530;51.448;7.238;2022-10-22T07:28:23;4.07;;;3.67;;
1082;SDS011;530;51.448;7.238;2022-10-22T07:30:49;7.23;;;4.20;;
1082;SDS011;530;51.448;7.238;2022-10-22T07:33:14;8.10;;;3.60;;
1082;SDS011;530;51.448;7.238;2022-10-22T07:35:40;5.63;;;3.30;;
1082;SDS011;530;51.448;7.238;2022-10-22T07:38:06;3.83;;;3.30;;
1082;SDS011;530;51.448;7.238;2022-10-22T07:40:32;3.77;;;3.13;;
1082;SDS011;530;51.448;7.238;2022-10-22T07:42:59;4.10;;;3.67;;
1082;SDS011;530;51.448;7.238;2022-10-22T07:45:25;6.00;;;3.53;;
1082;SDS011;530;51.448;7.238;2022-10-22T07:47:51;4.87;;;3.40;;
1082;SDS011;530;51.448;7.238;2022-10-22T07:50:16;5.47;;;3.57;;
1082;SDS011;530;51.448;7.238;2022-10-22T07:52:42;5.83;;;2.93;;
1082;SDS011;530;51.448;7.238;2022-10-22T07:55:08;6.30;;;3.30;;
1082;SDS011;530;51.448;7.238;2022-10-22T07:57:34;3.23;;;2.53;;
1082;SDS011;530;51.448;7.238;2022-10-22T08:00:02;4.23;;;2.80;;
1082;SDS011;530;51.448;7.238;2022-10-22T08:02:28;5.80;;;3.00;;
1082;SDS011;530;51.448;7.238;2022-10-22T08:04:54;4.67;;;3.00;;
1082;SDS011;530;51.448;7.238;2022-10-22T08:07:21;5.77;;;3.13;;
1082;SDS011;530;51.448;7.238;2022-10-22T08:09:47;4.57;;;3.23;;
1082;SDS011;530;51.448;7.238;2022-10-22T08:12:13;4.77;;;3.17;;
1082;SDS011;530;51.448;7.238;2022-10-22T08:14:39;7.30;;;3.43;;
1082;SDS011;530;51.448;7.238;2022-10-22T08:17:04;5.13;;;2.80;;
1082;SDS011;530;51.448;7.238;2022-10-22T08:19:30;3.83;;;2.60;;
1082;SDS011;530;51.448;7.238;2022-10-22T08:21:57;6.13;;;2.73;;
1082;SDS011;530;51.448;7.238;2022-10-22T08:24:23;9.60;;;2.70;;
1082;SDS011;530;51.448;7.238;2022-10-22T08:26:50;2.40;;;2.13;;
1082;SDS011;530;51.448;7.238;2022-10-22T08:29:18;7.93;;;3.00;;
1082;SDS011;530;51.448;7.238;2022-10-22T08:31:46;8.47;;;2.60;;
1082;SDS011;530;51.448;7.238;2022-10-22T08:34:13;7.33;;;2.87;;
1082;SDS011;530;51.448;7.238;2022-10-22T08:36:38;4.83;;;2.60;;
1082;SDS011;530;51.448;7.238;2022-10-22T08:39:04;2.47;;;2.27;;
1082;SDS011;530;51.448;7.238;2022-10-22T08:41:30;7.20;;;3.13;;
1082;SDS011;530;51.448;7.238;2022-10-22T08:44:20;4.43;;;2.13;;
1082;SDS011;530;51.448;7.238;2022-10-22T08:49:43;3.60;;;2.13;;
1082;SDS011;530;51.448;7.238;2022-10-22T08:52:11;9.50;;;2.63;;
1082;SDS011;530;51.448;7.238;2022-10-22T08:54:48;5.00;;;3.37;;
1082;SDS011;530;51.448;7.238;2022-10-22T08:57:27;6.20;;;2.57;;
1082;SDS011;530;51.448;7.238;2022-10-22T09:03:05;7.60;;;2.73;;
1082;SDS011;530;51.448;7.238;2022-10-22T09:08:25;4.70;;;2.53;;
1082;SDS011;530;51.448;7.238;2022-10-22T09:11:01;5.13;;;2.47;;
1082;SDS011;530;51.448;7.238;2022-10-22T09:13:31;7.00;;;2.70;;
1082;SDS011;530;51.448;7.238;2022-10-22T09:16:01;7.40;;;2.57;;
1082;SDS011;530;51.448;7.238;2022-10-22T09:21:49;3.57;;;2.20;;
1082;SDS011;530;51.448;7.238;2022-10-22T09:27:01;7.80;;;2.40;;
1082;SDS011;530;51.448;7.238;2022-10-22T09:29:35;5.60;;;2.67;;
1082;SDS011;530;51.448;7.238;2022-10-22T09:32:01;2.70;;;2.20;;
1082;SDS011;530;51.448;7.238;2022-10-22T09:34:28;6.83;;;2.50;;
1082;SDS011;530;51.448;7.238;2022-10-22T09:37:01;3.60;;;2.20;;
1082;SDS011;530;51.448;7.238;2022-10-22T09:39:33;6.87;;;2.63;;
1082;SDS011;530;51.448;7.238;2022-10-22T09:42:04;7.00;;;2.40;;
1082;SDS011;530;51.448;7.238;2022-10-22T09:44:34;5.10;;;2.60;;
1082;SDS011;530;51.448;7.238;2022-10-22T09:47:43;5.13;;;3.00;;
1082;SDS011;530;51.448;7.238;2022-10-22T09:52:38;6.03;;;2.47;;
1082;SDS011;530;51.448;7.238;2022-10-22T09:55:16;4.47;;;2.30;;
1082;SDS011;530;51.448;7.238;2022-10-22T09:57:42;4.07;;;2.67;;
1082;SDS011;530;51.448;7.238;2022-10-22T10:00:17;4.83;;;2.50;;
1082;SDS011;530;51.448;7.238;2022-10-22T10:02:43;5.40;;;2.77;;
1082;SDS011;530;51.448;7.238;2022-10-22T10:05:16;5.97;;;2.70;;
1082;SDS011;530;51.448;7.238;2022-10-22T10:07:56;6.20;;;2.83;;
1082;SDS011;530;51.448;7.238;2022-10-22T10:10:34;4.73;;;2.40;;
1082;SDS011;530;51.448;7.238;2022-10-22T10:21:48;5.33;;;1.67;;
1082;SDS011;530;51.448;7.238;2022-10-22T10:26:57;5.53;;;2.43;;
1082;SDS011;530;51.448;7.238;2022-10-22T10:29:33;7.73;;;2.53;;
1082;SDS011;530;51.448;7.238;2022-10-22T10:40:46;4.07;;;2.13;;
1082;SDS011;530;51.448;7.238;2022-10-22T10:48:55;5.37;;;1.90;;
1082;SDS011;530;51.448;7.238;2022-10-22T10:51:39;4.03;;;1.90;;
1082;SDS011;530;51.448;7.238;2022-10-22T11:00:04;6.73;;;2.50;;
1082;SDS011;530;51.448;7.238;2022-10-22T11:05:35;2.93;;;1.70;;
1082;SDS011;530;51.448;7.238;2022-10-22T11:08:20;8.30;;;2.30;;
1082;SDS011;530;51.448;7.238;2022-10-22T11:11:00;4.80;;;1.83;;
1082;SDS011;530;51.448;7.238;2022-10-22T11:13:36;4.73;;;2.00;;
1082;SDS011;530;51.448;7.238;2022-10-22T11:16:11;4.03;;;1.90;;
1082;SDS011;530;51.448;7.238;2022-10-22T11:22:20;8.80;;;2.30;;
1082;SDS011;530;51.448;7.238;2022-10-22T11:24:31;3.57;;;1.57;;
1082;SDS011;530;51.448;7.238;2022-10-22T11:30:12;4.33;;;1.50;;
1082;SDS011;530;51.448;7.238;2022-10-22T11:32:41;2.97;;;1.40;;
1082;SDS011;530;51.448;7.238;2022-10-22T11:38:13;3.97;;;1.60;;
1082;SDS011;530;51.448;7.238;2022-10-22T11:40:46;5.60;;;1.60;;
1082;SDS011;530;51.448;7.238;2022-10-22T11:49:13;5.30;;;1.50;;
1082;SDS011;530;51.448;7.238;2022-10-22T11:51:43;6.20;;;1.77;;
1082;SDS011;530;51.448;7.238;2022-10-22T11:54:31;7.13;;;2.17;;
1082;SDS011;530;51.448;7.238;2022-10-22T12:07:53;5.23;;;1.30;;
1082;SDS011;530;51.448;7.238;2022-10-22T12:10:23;4.03;;;1.40;;
1082;SDS011;530;51.448;7.238;2022-10-22T12:12:54;2.50;;;1.20;;
1082;SDS011;530;51.448;7.238;2022-10-22T12:15:23;4.80;;;1.20;;
1082;SDS011;530;51.448;7.238;2022-10-22T12:18:01;3.93;;;1.57;;
1082;SDS011;530;51.448;7.238;2022-10-22T12:20:29;2.87;;;1.20;;
1082;SDS011;530;51.448;7.238;2022-10-22T12:22:56;3.43;;;1.20;;
1082;SDS011;530;51.448;7.238;2022-10-22T12:25:23;4.40;;;1.83;;
1082;SDS011;530;51.448;7.238;2022-10-22T12:27:57;1.90;;;0.90;;
1082;SDS011;530;51.448;7.238;2022-10-22T12:30:34;2.83;;;1.40;;
1082;SDS011;530;51.448;7.238;2022-10-22T12:33:01;3.97;;;1.10;;
1082;SDS011;530;51.448;7.238;2022-10-22T12:35:30;1.47;;;0.70;;
1082;SDS011;530;51.448;7.238;2022-10-22T12:38:10;3.90;;;2.00;;
1082;SDS011;530;51.448;7.238;2022-10-22T12:40:38;3.93;;;1.10;;
1082;SDS011;530;51.448;7.238;2022-10-22T12:43:15;2.73;;;1.17;;
1082;SDS011;530;51.448;7.238;2022-10-22T12:45:43;5.27;;;1.20;;
1082;SDS011;530;51.448;7.238;2022-10-22T12:48:17;5.70;;;1.30;;
1082;SDS011;530;51.448;7.238;2022-10-22T12:51:00;3.80;;;1.23;;
1082;SDS011;530;51.448;7.238;2022-10-22T12:53:29;3.53;;;1.10;;
1082;SDS011;530;51.448;7.238;2022-10-22T12:56:00;4.70;;;1.10;;
1082;SDS011;530;51.448;7.238;2022-10-22T12:58:45;2.77;;;1.30;;
1082;SDS011;530;51.448;7.238;2022-10-22T13:01:33;2.57;;;1.40;;
1082;SDS011;530;51.448;7.238;2022-10-22T13:06:51;3.33;;;1.60;;
1082;SDS011;530;51.448;7.238;2022-10-22T13:09:36;2.90;;;1.13;;
1082;SDS011;530;51.448;7.238;2022-10-22T13:12:06;3.07;;;1.00;;
1082;SDS011;530;51.448;7.238;2022-10-22T13:14:38;3.63;;;1.50;;
1082;SDS011;530;51.448;7.238;2022-10-22T13:17:50;3.60;;;1.30;;
1082;SDS011;530;51.448;7.238;2022-10-22T13:24:55;4.80;;;1.63;;
1082;SDS011;530;51.448;7.238;2022-10-22T13:27:24;3.43;;;1.37;;
1082;SDS011;530;51.448;7.238;2022-10-22T13:29:53;5.20;;;1.83;;
1082;SDS011;530;51.448;7.238;2022-10-22T13:32:30;4.77;;;2.70;;
1082;SDS011;530;51.448;7.238;2022-10-22T13:34:58;3.70;;;1.70;;
1082;SDS011;530;51.448;7.238;2022-10-22T13:37:29;4.30;;;1.10;;
1082;SDS011;530;51.448;7.238;2022-10-22T13:39:56;2.73;;;1.17;;
1082;SDS011;530;51.448;7.238;2022-10-22T13:42:22;4.13;;;1.13;;
1082;SDS011;530;51.448;7.238;2022-10-22T13:44:47;3.73;;;1.23;;
1082;SDS011;530;51.448;7.238;2022-10-22T13:47:26;3.87;;;1.10;;
1082;SDS011;530;51.448;7.238;2022-10-22T13:49:57;2.20;;;1.00;;
1082;SDS011;530;51.448;7.238;2022-10-22T13:52:35;1.60;;;0.90;;
1082;SDS011;530;51.448;7.238;2022-10-22T13:55:14;2.60;;;1.00;;
1082;SDS011;530;51.448;7.238;2022-10-22T13:58:02;7.43;;;1.47;;
1082;SDS011;530;51.448;7.238;2022-10-22T14:00:34;3.30;;;0.90;;
1082;SDS011;530;51.448;7.238;2022-10-22T14:03:02;2.67;;;0.90;;
1082;SDS011;530;51.448;7.238;2022-10-22T14:05:29;2.80;;;1.10;;
1082;SDS011;530;51.448;7.238;2022-10-22T14:07:59;4.80;;;1.00;;
1082;SDS011;530;51.448;7.238;2022-10-22T14:10:26;3.37;;;0.87;;
1082;SDS011;530;51.448;7.238;2022-10-22T14:12:52;2.10;;;1.00;;
1082;SDS011;530;51.448;7.238;2022-10-22T14:15:19;2.90;;;1.23;;
1082;SDS011;530;51.448;7.238;2022-10-22T14:17:47;4.57;;;1.20;;
1082;SDS011;530;51.448;7.238;2022-10-22T14:20:20;3.27;;;1.50;;
1082;SDS011;530;51.448;7.238;2022-10-22T14:22:48;1.77;;;1.10;;
1082;SDS011;530;51.448;7.238;2022-10-22T14:25:15;2.90;;;1.00;;
1082;SDS011;530;51.448;7.238;2022-10-22T14:27:43;2.50;;;1.10;;
1082;SDS011;530;51.448;7.238;2022-10-22T14:30:12;3.30;;;1.07;;
1082;SDS011;530;51.448;7.238;2022-10-22T14:32:42;2.50;;;1.03;;
1082;SDS011;530;51.448;7.238;2022-10-22T14:35:11;1.57;;;0.90;;
1082;SDS011;530;51.448;7.238;2022-10-22T14:37:38;2.73;;;0.73;;
1082;SDS011;530;51.448;7.238;2022-10-22T14:40:04;3.07;;;1.20;;
1082;SDS011;530;51.448;7.238;2022-10-22T14:42:30;3.33;;;1.17;;
1082;SDS011;530;51.448;7.238;2022-10-22T14:45:04;2.33;;;1.07;;
1082;SDS011;530;51.448;7.238;2022-10-22T14:47:31;3.03;;;0.80;;
1082;SDS011;530;51.448;7.238;2022-10-22T14:49:56;1.43;;;1.00;;
1082;SDS011;530;51.448;7.238;2022-10-22T14:52:22;3.03;;;1.30;;
1082;SDS011;530;51.448;7.238;2022-10-22T14:54:48;2.77;;;1.33;;
1082;SDS011;530;51.448;7.238;2022-10-22T14:57:13;3.63;;;1.13;;
1082;SDS011;530;51.448;7.238;2022-10-22T14:59:40;4.80;;;1.20;;
1082;SDS011;530;51.448;7.238;2022-10-22T15:02:09;2.23;;;0.97;;
1082;SDS011;530;51.448;7.238;2022-10-22T15:04:38;4.93;;;1.20;;
1082;SDS011;530;51.448;7.238;2022-10-22T15:07:04;10.13;;;1.50;;
1082;SDS011;530;51.448;7.238;2022-10-22T15:09:30;3.43;;;1.23;;
1082;SDS011;530;51.448;7.238;2022-10-22T15:11:55;4.43;;;1.00;;
1082;SDS011;530;51.448;7.238;2022-10-22T15:14:21;3.13;;;1.43;;
1082;SDS011;530;51.448;7.238;2022-10-22T15:16:47;4.20;;;1.57;;
1082;SDS011;530;51.448;7.238;2022-10-22T15:19:12;2.43;;;1.10;;
1082;SDS011;530;51.448;7.238;2022-10-22T15:21:38;2.67;;;0.80;;
1082;SDS011;530;51.448;7.238;2022-10-22T15:24:04;4.40;;;1.40;;
1082;SDS011;530;51.448;7.238;2022-10-22T15:26:30;1.53;;;1.30;;
1082;SDS011;530;51.448;7.238;2022-10-22T15:28:56;3.70;;;1.00;;
1082;SDS011;530;51.448;7.238;2022-10-22T15:34:06;2.40;;;1.00;;
1082;SDS011;530;51.448;7.238;2022-10-22T15:36:32;2.93;;;1.10;;
1082;SDS011;530;51.448;7.238;2022-10-22T15:38:57;2.20;;;1.20;;
1082;SDS011;530;51.448;7.238;2022-10-22T15:41:23;2.73;;;0.97;;
1082;SDS011;530;51.448;7.238;2022-10-22T15:43:49;4.93;;;1.53;;
1082;SDS011;530;51.448;7.238;2022-10-22T15:46:15;2.13;;;0.80;;
1082;SDS011;530;51.448;7.238;2022-10-22T15:48:42;2.60;;;1.40;;
1082;SDS011;530;51.448;7.238;2022-10-22T15:51:10;3.87;;;1.30;;
1082;SDS011;530;51.448;7.238;2022-10-22T15:53:40;2.23;;;1.20;;
1082;SDS011;530;51.448;7.238;2022-10-22T15:56:06;2.33;;;1.20;;
1082;SDS011;530;51.448;7.238;2022-10-22T15:58:33;5.47;;;1.77;;
1082;SDS011;530;51.448;7.238;2022-10-22T16:01:03;2.43;;;1.40;;
1082;SDS011;530;51.448;7.238;2022-10-22T16:03:30;7.13;;;4.00;;
1082;SDS011;530;51.448;7.238;2022-10-22T16:05:55;3.50;;;1.90;;
1082;SDS011;530;51.448;7.238;2022-10-22T16:08:22;5.17;;;1.73;;
1082;SDS011;530;51.448;7.238;2022-10-22T16:10:48;5.10;;;2.70;;
1082;SDS011;530;51.448;7.238;2022-10-22T16:13:14;3.33;;;2.63;;
1082;SDS011;530;51.448;7.238;2022-10-22T16:15:40;6.20;;;2.40;;
1082;SDS011;530;51.448;7.238;2022-10-22T16:18:06;6.90;;;2.67;;
1082;SDS011;530;51.448;7.238;2022-10-22T16:20:31;5.43;;;2.40;;
1082;SDS011;530;51.448;7.238;2022-10-22T16:22:57;4.63;;;2.70;;
1082;SDS011;530;51.448;7.238;2022-10-22T16:25:22;9.10;;;2.70;;
1082;SDS011;530;51.448;7.238;2022-10-22T16:27:49;5.07;;;1.83;;
1082;SDS011;530;51.448;7.238;2022-10-22T16:30:16;4.83;;;2.00;;
1082;SDS011;530;51.448;7.238;2022-10-22T16:32:42;3.47;;;2.03;;
1082;SDS011;530;51.448;7.238;2022-10-22T16:35:08;3.80;;;2.20;;
1082;SDS011;530;51.448;7.238;2022-10-22T16:37:33;6.20;;;2.73;;
1082;SDS011;530;51.448;7.238;2022-10-22T16:39:59;5.93;;;2.40;;
1082;SDS011;530;51.448;7.238;2022-10-22T16:42:25;4.47;;;3.10;;
1082;SDS011;530;51.448;7.238;2022-10-22T16:44:51;4.70;;;4.20;;
1082;SDS011;530;51.448;7.238;2022-10-22T16:47:16;7.53;;;4.00;;
1082;SDS011;530;51.448;7.238;2022-10-22T16:49:42;3.83;;;3.20;;
1082;SDS011;530;51.448;7.238;2022-10-22T16:52:08;9.17;;;5.40;;
1082;SDS011;530;51.448;7.238;2022-10-22T16:54:33;6.13;;;5.07;;
1082;SDS011;530;51.448;7.238;2022-10-22T16:56:59;6.73;;;5.60;;
1082;SDS011;530;51.448;7.238;2022-10-22T16:59:25;10.70;;;5.77;;
1082;SDS011;530;51.448;7.238;2022-10-22T17:01:50;8.00;;;5.97;;
1082;SDS011;530;51.448;7.238;2022-10-22T17:04:16;10.20;;;5.37;;
1082;SDS011;530;51.448;7.238;2022-10-22T17:06:42;10.10;;;5.67;;
1082;SDS011;530;51.448;7.238;2022-10-22T17:09:08;10.80;;;6.30;;
1082;SDS011;530;51.448;7.238;2022-10-22T17:11:34;6.67;;;5.07;;
1082;SDS011;530;51.448;7.238;2022-10-22T17:14:01;5.47;;;4.50;;
1082;SDS011;530;51.448;7.238;2022-10-22T17:16:27;5.73;;;3.50;;
1082;SDS011;530;51.448;7.238;2022-10-22T17:18:53;7.30;;;3.80;;
1082;SDS011;530;51.448;7.238;2022-10-22T17:21:19;9.90;;;3.93;;
1082;SDS011;530;51.448;7.238;2022-10-22T17:23:46;3.80;;;2.93;;
1082;SDS011;530;51.448;7.238;2022-10-22T17:26:14;5.40;;;3.60;;
1082;SDS011;530;51.448;7.238;2022-10-22T17:28:41;7.63;;;3.73;;
1082;SDS011;530;51.448;7.238;2022-10-22T17:31:08;8.70;;;3.53;;
1082;SDS011;530;51.448;7.238;2022-10-22T17:33:39;7.47;;;3.67;;
1082;SDS011;530;51.448;7.238;2022-10-22T17:36:05;5.07;;;3.40;;